sensor_id;sensor_type;location;lat;lon;timestamp;pressure;altitude;pressure_sealevel;temperature;humidity
43701;BME280;58809;47.984;7.964;2023-07-29T00:02:17;96834.78;;;16.39;100.00
43701;BME280;58809;47.984;7.964;2023-07-29T00:05:18;96824.22;;;16.44;100.00
43701;BME280;58809;47.984;7.964;2023-07-29T00:08:20;96817.94;;;16.38;100.00
43701;BME280;58809;47.984;7.964;2023-07-29T00:11:21;96816.88;;;16.39;100.00
43701;BME280;58809;47.984;7.964;2023-07-29T00:14:23;96814.91;;;16.34;100.00
43701;BME280;58809;47.984;7.964;2023-07-29T00:17:25;96803.78;;;16.38;100.00
43701;BME280;58809;47.984;7.964;2023-07-29T00:20:26;96799.84;;;16.40;100.00
43701;BME280;58809;47.984;7.964;2023-07-29T00:23:29;96798.19;;;16.39;100.00
43701;BME280;58809;47.984;7.964;2023-07-29T00:26:30;96810.97;;;16.37;100.00
43701;BME280;58809;47.984;7.964;2023-07-29T00:29:32;96808.06;;;16.39;100.00
43701;BME280;58809;47.984;7.964;2023-07-29T00:32:35;96805.09;;;16.47;100.00
43701;BME280;58809;47.984;7.964;2023-07-29T00:35:36;96807.06;;;16.51;100.00
43701;BME280;58809;47.984;7.964;2023-07-29T00:38:38;96796.72;;;16.55;100.00
43701;BME280;58809;47.984;7.964;2023-07-29T00:41:40;96806.16;;;16.58;100.00
43701;BME280;58809;47.984;7.964;2023-07-29T00:44:41;96787.09;;;16.54;100.00
43701;BME280;58809;47.984;7.964;2023-07-29T00:47:43;96787.69;;;16.56;100.00
43701;BME280;58809;47.984;7.964;2023-07-29T00:50:45;96780.03;;;16.60;100.00
43701;BME280;58809;47.984;7.964;2023-07-29T00:53:47;96779.53;;;16.51;100.00
43701;BME280;58809;47.984;7.964;2023-07-29T00:56:48;96776.44;;;16.54;100.00
43701;BME280;58809;47.984;7.964;2023-07-29T00:59:50;96774.78;;;16.53;100.00
43701;BME280;58809;47.984;7.964;2023-07-29T01:02:52;96787.69;;;16.56;100.00
43701;BME280;58809;47.984;7.964;2023-07-29T01:06:15;96773.63;;;16.61;100.00
43701;BME280;58809;47.984;7.964;2023-07-29T01:12:52;96775.03;;;16.63;100.00
43701;BME280;58809;47.984;7.964;2023-07-29T01:15:58;96769.69;;;16.63;100.00
43701;BME280;58809;47.984;7.964;2023-07-29T01:19:05;96767.25;;;16.62;100.00
43701;BME280;58809;47.984;7.964;2023-07-29T01:22:10;96768.78;;;16.58;100.00
43701;BME280;58809;47.984;7.964;2023-07-29T01:25:12;96763.75;;;16.61;100.00
43701;BME280;58809;47.984;7.964;2023-07-29T01:28:14;96767.25;;;16.62;100.00
43701;BME280;58809;47.984;7.964;2023-07-29T01:31:26;96759.69;;;16.59;100.00
43701;BME280;58809;47.984;7.964;2023-07-29T01:38:05;96756.09;;;16.53;100.00
43701;BME280;58809;47.984;7.964;2023-07-29T01:41:08;96762.34;;;16.47;100.00
43701;BME280;58809;47.984;7.964;2023-07-29T01:44:13;96750.47;;;16.43;100.00
43701;BME280;58809;47.984;7.964;2023-07-29T01:47:16;96756.53;;;16.38;100.00
43701;BME280;58809;47.984;7.964;2023-07-29T01:50:17;96743.03;;;16.33;100.00
43701;BME280;58809;47.984;7.964;2023-07-29T01:53:19;96757.34;;;16.39;100.00
43701;BME280;58809;47.984;7.964;2023-07-29T01:56:21;96763.84;;;16.43;100.00
43701;BME280;58809;47.984;7.964;2023-07-29T01:59:27;96763.97;;;16.48;100.00
43701;BME280;58809;47.984;7.964;2023-07-29T02:02:28;96770.03;;;16.55;100.00
43701;BME280;58809;47.984;7.964;2023-07-29T02:05:31;96762.38;;;16.59;100.00
43701;BME280;58809;47.984;7.964;2023-07-29T02:08:32;96756.34;;;16.63;100.00
43701;BME280;58809;47.984;7.964;2023-07-29T02:11:34;96756.22;;;16.58;100.00
43701;BME280;58809;47.984;7.964;2023-07-29T02:14:36;96747.13;;;16.47;100.00
43701;BME280;58809;47.984;7.964;2023-07-29T02:17:37;96762.47;;;16.52;100.00
43701;BME280;58809;47.984;7.964;2023-07-29T02:20:39;96767.13;;;16.57;100.00
43701;BME280;58809;47.984;7.964;2023-07-29T02:23:41;96760.75;;;16.58;100.00
43701;BME280;58809;47.984;7.964;2023-07-29T02:26:42;96759.47;;;16.60;100.00
43701;BME280;58809;47.984;7.964;2023-07-29T02:29:44;96767.25;;;16.62;100.00
43701;BME280;58809;47.984;7.964;2023-07-29T02:32:45;96765.97;;;16.64;100.00
43701;BME280;58809;47.984;7.964;2023-07-29T02:35:47;96760.97;;;16.68;100.00
43701;BME280;58809;47.984;7.964;2023-07-29T02:38:49;96760.19;;;16.67;100.00
43701;BME280;58809;47.984;7.964;2023-07-29T02:41:50;96763.19;;;16.71;100.00
43701;BME280;58809;47.984;7.964;2023-07-29T02:44:52;96767.63;;;16.77;100.00
43701;BME280;58809;47.984;7.964;2023-07-29T02:47:54;96754.25;;;16.77;100.00
43701;BME280;58809;47.984;7.964;2023-07-29T02:50:55;96760.41;;;16.66;100.00
43701;BME280;58809;47.984;7.964;2023-07-29T02:53:57;96743.78;;;16.64;100.00
43701;BME280;58809;47.984;7.964;2023-07-29T02:56:59;96747.84;;;16.54;100.00
43701;BME280;58809;47.984;7.964;2023-07-29T03:00:02;96722.63;;;16.39;100.00
43701;BME280;58809;47.984;7.964;2023-07-29T03:03:04;96748.66;;;16.43;100.00
43701;BME280;58809;47.984;7.964;2023-07-29T03:06:07;96741.44;;;16.44;100.00
43701;BME280;58809;47.984;7.964;2023-07-29T03:09:09;96747.38;;;16.46;100.00
43701;BME280;58809;47.984;7.964;2023-07-29T03:12:11;96740.16;;;16.46;100.00
43701;BME280;58809;47.984;7.964;2023-07-29T03:15:12;96741.44;;;16.44;100.00
43701;BME280;58809;47.984;7.964;2023-07-29T03:18:15;96736.78;;;16.39;100.00
43701;BME280;58809;47.984;7.964;2023-07-29T03:21:16;96735.97;;;16.39;100.00
43701;BME280;58809;47.984;7.964;2023-07-29T03:24:18;96730.19;;;16.42;100.00
43701;BME280;58809;47.984;7.964;2023-07-29T03:27:20;96732.72;;;16.36;100.00
43701;BME280;58809;47.984;7.964;2023-07-29T03:30:22;96721.22;;;16.36;100.00
43701;BME280;58809;47.984;7.964;2023-07-29T03:33:25;96718.91;;;16.40;100.00
43701;BME280;58809;47.984;7.964;2023-07-29T03:36:39;96724.34;;;16.33;100.00
43701;BME280;58809;47.984;7.964;2023-07-29T03:39:42;96718.22;;;16.32;100.00
43701;BME280;58809;47.984;7.964;2023-07-29T03:42:43;96713.19;;;16.24;100.00
43701;BME280;58809;47.984;7.964;2023-07-29T03:45:45;96715.50;;;16.21;100.00
43701;BME280;58809;47.984;7.964;2023-07-29T03:48:47;96724.44;;;16.26;100.00
43701;BME280;58809;47.984;7.964;2023-07-29T03:51:49;96720.63;;;16.22;100.00
43701;BME280;58809;47.984;7.964;2023-07-29T03:54:50;96725.72;;;16.24;100.00
43701;BME280;58809;47.984;7.964;2023-07-29T03:57:52;96711.34;;;16.25;100.00
43701;BME280;58809;47.984;7.964;2023-07-29T04:00:53;96712.16;;;16.25;100.00
43701;BME280;58809;47.984;7.964;2023-07-29T04:03:55;96714.47;;;16.22;100.00
43701;BME280;58809;47.984;7.964;2023-07-29T04:06:57;96712.81;;;16.21;100.00
43701;BME280;58809;47.984;7.964;2023-07-29T04:09:59;96713.66;;;16.21;100.00
43701;BME280;58809;47.984;7.964;2023-07-29T04:13:06;96719.59;;;16.23;100.00
43701;BME280;58809;47.984;7.964;2023-07-29T04:16:07;96713.31;;;16.29;100.00
43701;BME280;58809;47.984;7.964;2023-07-29T04:19:09;96711.81;;;16.33;100.00
43701;BME280;58809;47.984;7.964;2023-07-29T04:22:11;96716.00;;;16.29;100.00
43701;BME280;58809;47.984;7.964;2023-07-29T04:25:12;96723.19;;;16.29;100.00
43701;BME280;58809;47.984;7.964;2023-07-29T04:28:15;96725.16;;;16.33;100.00
43701;BME280;58809;47.984;7.964;2023-07-29T04:31:17;96737.84;;;16.38;100.00
43701;BME280;58809;47.984;7.964;2023-07-29T04:34:19;96726.59;;;16.48;100.00
43701;BME280;58809;47.984;7.964;2023-07-29T04:37:20;96728.22;;;16.61;100.00
43701;BME280;58809;47.984;7.964;2023-07-29T04:40:22;96738.94;;;16.72;100.00
43701;BME280;58809;47.984;7.964;2023-07-29T04:43:27;96743.84;;;16.87;100.00
43701;BME280;58809;47.984;7.964;2023-07-29T04:46:28;96743.13;;;16.92;100.00
43701;BME280;58809;47.984;7.964;2023-07-29T04:49:31;96743.25;;;16.97;100.00
43701;BME280;58809;47.984;7.964;2023-07-29T04:52:32;96741.97;;;17.11;100.00
43701;BME280;58809;47.984;7.964;2023-07-29T04:55:34;96747.44;;;17.17;100.00
43701;BME280;58809;47.984;7.964;2023-07-29T04:58:35;96748.56;;;17.32;100.00
43701;BME280;58809;47.984;7.964;2023-07-29T05:01:37;96747.16;;;17.42;100.00
43701;BME280;58809;47.984;7.964;2023-07-29T05:04:39;96754.59;;;17.40;100.00
43701;BME280;58809;47.984;7.964;2023-07-29T05:07:40;96756.00;;;17.42;100.00
43701;BME280;58809;47.984;7.964;2023-07-29T05:10:42;96752.03;;;17.45;100.00
43701;BME280;58809;47.984;7.964;2023-07-29T05:13:43;96746.78;;;17.50;100.00
43701;BME280;58809;47.984;7.964;2023-07-29T05:16:46;96761.81;;;17.51;100.00
43701;BME280;58809;47.984;7.964;2023-07-29T05:19:49;96771.22;;;17.54;100.00
43701;BME280;58809;47.984;7.964;2023-07-29T05:22:50;96754.19;;;17.60;100.00
43701;BME280;58809;47.984;7.964;2023-07-29T05:25:52;96761.72;;;17.86;100.00
43701;BME280;58809;47.984;7.964;2023-07-29T05:28:53;96750.09;;;18.09;100.00
43701;BME280;58809;47.984;7.964;2023-07-29T05:31:55;96754.97;;;18.13;100.00
43701;BME280;58809;47.984;7.964;2023-07-29T05:34:58;96757.72;;;18.01;100.00
43701;BME280;58809;47.984;7.964;2023-07-29T05:38:00;96782.28;;;17.98;100.00
43701;BME280;58809;47.984;7.964;2023-07-29T05:41:02;96773.47;;;18.14;100.00
43701;BME280;58809;47.984;7.964;2023-07-29T05:44:04;96776.47;;;18.46;100.00
43701;BME280;58809;47.984;7.964;2023-07-29T05:47:08;96760.41;;;18.63;100.00
43701;BME280;58809;47.984;7.964;2023-07-29T05:50:09;96776.56;;;18.69;100.00
43701;BME280;58809;47.984;7.964;2023-07-29T05:53:11;96774.53;;;18.76;100.00
43701;BME280;58809;47.984;7.964;2023-07-29T05:56:13;96779.34;;;19.08;100.00
43701;BME280;58809;47.984;7.964;2023-07-29T05:59:14;96787.53;;;19.18;100.00
43701;BME280;58809;47.984;7.964;2023-07-29T06:02:16;96790.72;;;19.15;100.00
43701;BME280;58809;47.984;7.964;2023-07-29T06:05:19;96781.19;;;19.24;100.00
43701;BME280;58809;47.984;7.964;2023-07-29T06:08:20;96785.78;;;19.46;100.00
43701;BME280;58809;47.984;7.964;2023-07-29T06:11:22;96789.97;;;19.58;100.00
43701;BME280;58809;47.984;7.964;2023-07-29T06:14:24;96781.03;;;19.53;100.00
43701;BME280;58809;47.984;7.964;2023-07-29T06:17:25;96785.56;;;19.69;100.00
43701;BME280;58809;47.984;7.964;2023-07-29T06:20:28;96788.16;;;20.08;100.00
43701;BME280;58809;47.984;7.964;2023-07-29T06:23:29;96780.19;;;20.46;100.00
43701;BME280;58809;47.984;7.964;2023-07-29T06:26:31;96779.50;;;20.83;100.00
43701;BME280;58809;47.984;7.964;2023-07-29T06:29:33;96769.53;;;20.83;100.00
43701;BME280;58809;47.984;7.964;2023-07-29T06:32:34;96770.84;;;20.81;100.00
43701;BME280;58809;47.984;7.964;2023-07-29T06:35:36;96759.06;;;20.54;100.00
43701;BME280;58809;47.984;7.964;2023-07-29T06:38:38;96751.25;;;20.26;100.00
43701;BME280;58809;47.984;7.964;2023-07-29T06:41:39;96758.88;;;20.07;100.00
43701;BME280;58809;47.984;7.964;2023-07-29T06:44:41;96759.47;;;19.87;100.00
43701;BME280;58809;47.984;7.964;2023-07-29T06:47:43;96800.03;;;19.68;100.00
43701;BME280;58809;47.984;7.964;2023-07-29T06:50:44;96816.69;;;18.80;100.00
43701;BME280;58809;47.984;7.964;2023-07-29T06:53:46;96804.91;;;18.19;100.00
43701;BME280;58809;47.984;7.964;2023-07-29T06:56:48;96803.03;;;18.19;100.00
43701;BME280;58809;47.984;7.964;2023-07-29T06:59:49;96818.44;;;18.41;100.00
43701;BME280;58809;47.984;7.964;2023-07-29T07:02:51;96810.56;;;18.68;100.00
43701;BME280;58809;47.984;7.964;2023-07-29T07:05:52;96824.44;;;19.11;100.00
43701;BME280;58809;47.984;7.964;2023-07-29T07:08:54;96828.72;;;19.29;100.00
43701;BME280;58809;47.984;7.964;2023-07-29T07:11:55;96816.53;;;19.21;100.00
43701;BME280;58809;47.984;7.964;2023-07-29T07:14:57;96815.38;;;19.34;100.00
43701;BME280;58809;47.984;7.964;2023-07-29T07:17:58;96807.69;;;19.59;100.00
43701;BME280;58809;47.984;7.964;2023-07-29T07:21:00;96817.28;;;19.94;100.00
43701;BME280;58809;47.984;7.964;2023-07-29T07:24:02;96810.53;;;19.92;100.00
43701;BME280;58809;47.984;7.964;2023-07-29T07:27:04;96817.41;;;19.83;100.00
43701;BME280;58809;47.984;7.964;2023-07-29T07:30:06;96810.97;;;19.84;100.00
43701;BME280;58809;47.984;7.964;2023-07-29T07:33:08;96816.13;;;20.12;100.00
43701;BME280;58809;47.984;7.964;2023-07-29T07:36:09;96804.75;;;20.54;100.00
43701;BME280;58809;47.984;7.964;2023-07-29T07:39:11;96817.41;;;20.81;100.00
43701;BME280;58809;47.984;7.964;2023-07-29T07:42:13;96815.22;;;20.78;100.00
43701;BME280;58809;47.984;7.964;2023-07-29T07:45:14;96825.22;;;20.88;100.00
43701;BME280;58809;47.984;7.964;2023-07-29T07:48:16;96812.44;;;21.00;100.00
43701;BME280;58809;47.984;7.964;2023-07-29T07:51:22;96813.16;;;21.28;98.27
43701;BME280;58809;47.984;7.964;2023-07-29T07:54:23;96816.72;;;21.39;94.67
43701;BME280;58809;47.984;7.964;2023-07-29T07:57:25;96797.00;;;21.70;92.51
43701;BME280;58809;47.984;7.964;2023-07-29T08:00:26;96816.81;;;22.07;88.31
43701;BME280;58809;47.984;7.964;2023-07-29T08:03:28;96810.34;;;22.03;88.26
43701;BME280;58809;47.984;7.964;2023-07-29T08:06:30;96824.56;;;21.88;86.72
43701;BME280;58809;47.984;7.964;2023-07-29T08:09:32;96804.09;;;21.92;86.31
43701;BME280;58809;47.984;7.964;2023-07-29T08:12:33;96815.53;;;22.25;83.69
43701;BME280;58809;47.984;7.964;2023-07-29T08:15:35;96816.41;;;22.56;82.94
43701;BME280;58809;47.984;7.964;2023-07-29T08:18:36;96807.28;;;22.57;82.55
43701;BME280;58809;47.984;7.964;2023-07-29T08:21:38;96822.38;;;22.53;82.27
43701;BME280;58809;47.984;7.964;2023-07-29T08:24:40;96810.75;;;22.58;82.13
43701;BME280;58809;47.984;7.964;2023-07-29T08:27:41;96815.91;;;22.70;80.81
43701;BME280;58809;47.984;7.964;2023-07-29T08:30:43;96816.72;;;22.80;79.52
43701;BME280;58809;47.984;7.964;2023-07-29T08:33:45;96833.72;;;23.01;78.88
43701;BME280;58809;47.984;7.964;2023-07-29T08:36:47;96828.84;;;22.93;78.51
43701;BME280;58809;47.984;7.964;2023-07-29T08:39:48;96819.44;;;23.01;77.90
43701;BME280;58809;47.984;7.964;2023-07-29T08:42:50;96837.78;;;22.99;78.91
43701;BME280;58809;47.984;7.964;2023-07-29T08:45:52;96823.75;;;22.86;78.80
43701;BME280;58809;47.984;7.964;2023-07-29T08:48:55;96834.00;;;22.84;79.25
43701;BME280;58809;47.984;7.964;2023-07-29T08:51:57;96821.59;;;22.94;78.93
43701;BME280;58809;47.984;7.964;2023-07-29T08:54:58;96851.28;;;22.94;78.15
43701;BME280;58809;47.984;7.964;2023-07-29T08:58:00;96838.34;;;23.21;77.51
43701;BME280;58809;47.984;7.964;2023-07-29T09:01:02;96836.72;;;23.41;76.55
43701;BME280;58809;47.984;7.964;2023-07-29T09:04:04;96836.16;;;23.13;77.16
43701;BME280;58809;47.984;7.964;2023-07-29T09:07:07;96850.22;;;23.36;76.92
43701;BME280;58809;47.984;7.964;2023-07-29T09:10:09;96836.41;;;23.42;76.71
43701;BME280;58809;47.984;7.964;2023-07-29T09:13:12;96845.88;;;23.45;75.45
43701;BME280;58809;47.984;7.964;2023-07-29T09:16:14;96853.47;;;23.17;75.92
43701;BME280;58809;47.984;7.964;2023-07-29T09:19:16;96841.28;;;23.35;75.47
43701;BME280;58809;47.984;7.964;2023-07-29T09:22:19;96840.13;;;23.82;73.39
43701;BME280;58809;47.984;7.964;2023-07-29T09:25:29;96843.59;;;23.98;73.29
43701;BME280;58809;47.984;7.964;2023-07-29T09:28:38;96842.44;;;24.15;72.65
43701;BME280;58809;47.984;7.964;2023-07-29T09:31:41;96830.66;;;24.45;71.49
43701;BME280;58809;47.984;7.964;2023-07-29T09:34:42;96842.03;;;24.47;70.26
43701;BME280;58809;47.984;7.964;2023-07-29T09:37:44;96834.66;;;24.58;70.40
43701;BME280;58809;47.984;7.964;2023-07-29T09:40:45;96833.56;;;24.64;70.05
43701;BME280;58809;47.984;7.964;2023-07-29T09:43:47;96835.66;;;24.72;69.67
43701;BME280;58809;47.984;7.964;2023-07-29T09:46:48;96837.38;;;25.32;66.81
43701;BME280;58809;47.984;7.964;2023-07-29T09:49:51;96824.75;;;25.17;67.06
43701;BME280;58809;47.984;7.964;2023-07-29T09:52:54;96843.03;;;25.35;66.45
43701;BME280;58809;47.984;7.964;2023-07-29T09:55:58;96830.06;;;25.32;65.04
43701;BME280;58809;47.984;7.964;2023-07-29T09:59:00;96821.59;;;25.39;64.96
43701;BME280;58809;47.984;7.964;2023-07-29T10:02:12;96836.03;;;25.59;64.86
43701;BME280;58809;47.984;7.964;2023-07-29T10:05:16;96828.78;;;25.54;64.88
43701;BME280;58809;47.984;7.964;2023-07-29T10:08:17;96832.75;;;25.32;64.83
43701;BME280;58809;47.984;7.964;2023-07-29T10:11:20;96843.63;;;25.57;64.42
43701;BME280;58809;47.984;7.964;2023-07-29T10:14:22;96829.00;;;25.82;63.90
43701;BME280;58809;47.984;7.964;2023-07-29T10:17:25;96836.16;;;25.72;62.72
43701;BME280;58809;47.984;7.964;2023-07-29T10:20:27;96842.88;;;25.51;62.96
43701;BME280;58809;47.984;7.964;2023-07-29T10:23:34;96835.91;;;25.98;62.04
43701;BME280;58809;47.984;7.964;2023-07-29T10:26:40;96843.94;;;26.46;60.52
43701;BME280;58809;47.984;7.964;2023-07-29T10:29:45;96837.28;;;26.39;59.44
43701;BME280;58809;47.984;7.964;2023-07-29T10:32:48;96838.50;;;26.27;59.68
43701;BME280;58809;47.984;7.964;2023-07-29T10:35:52;96846.16;;;26.44;59.93
43701;BME280;58809;47.984;7.964;2023-07-29T10:38:54;96828.69;;;26.12;59.60
43701;BME280;58809;47.984;7.964;2023-07-29T10:42:01;96831.28;;;26.42;58.68
43701;BME280;58809;47.984;7.964;2023-07-29T10:45:17;96816.19;;;26.74;58.32
43701;BME280;58809;47.984;7.964;2023-07-29T10:51:37;96829.75;;;26.74;58.25
43701;BME280;58809;47.984;7.964;2023-07-29T10:54:46;96821.88;;;26.34;58.76
43701;BME280;58809;47.984;7.964;2023-07-29T10:57:47;96823.66;;;26.44;59.13
43701;BME280;58809;47.984;7.964;2023-07-29T11:00:49;96854.03;;;26.84;57.97
43701;BME280;58809;47.984;7.964;2023-07-29T11:07:22;96823.47;;;27.44;57.51
43701;BME280;58809;47.984;7.964;2023-07-29T11:10:42;96816.06;;;27.77;56.68
43701;BME280;58809;47.984;7.964;2023-07-29T11:13:44;96809.09;;;28.27;55.50
43701;BME280;58809;47.984;7.964;2023-07-29T11:16:46;96809.63;;;28.01;56.05
43701;BME280;58809;47.984;7.964;2023-07-29T11:19:48;96813.44;;;27.72;55.91
43701;BME280;58809;47.984;7.964;2023-07-29T11:22:52;96811.31;;;27.55;56.18
43701;BME280;58809;47.984;7.964;2023-07-29T11:25:54;96800.16;;;27.57;55.74
43701;BME280;58809;47.984;7.964;2023-07-29T11:28:55;96799.84;;;27.25;55.82
43701;BME280;58809;47.984;7.964;2023-07-29T11:31:57;96795.75;;;26.95;55.89
43701;BME280;58809;47.984;7.964;2023-07-29T11:35:06;96801.00;;;27.38;54.82
43701;BME280;58809;47.984;7.964;2023-07-29T11:38:14;96804.19;;;27.73;55.13
43701;BME280;58809;47.984;7.964;2023-07-29T11:41:19;96790.59;;;27.73;53.54
43701;BME280;58809;47.984;7.964;2023-07-29T11:44:22;96800.34;;;28.02;52.79
43701;BME280;58809;47.984;7.964;2023-07-29T11:47:24;96807.41;;;28.03;52.76
43701;BME280;58809;47.984;7.964;2023-07-29T11:50:26;96808.81;;;28.00;52.60
43701;BME280;58809;47.984;7.964;2023-07-29T11:53:28;96811.31;;;27.83;52.78
43701;BME280;58809;47.984;7.964;2023-07-29T11:56:31;96797.63;;;27.88;51.72
43701;BME280;58809;47.984;7.964;2023-07-29T11:59:35;96795.41;;;27.76;51.43
43701;BME280;58809;47.984;7.964;2023-07-29T12:02:42;96794.09;;;27.88;51.41
43701;BME280;58809;47.984;7.964;2023-07-29T12:05:46;96794.22;;;27.82;51.45
43701;BME280;58809;47.984;7.964;2023-07-29T12:08:49;96789.06;;;27.95;51.30
43701;BME280;58809;47.984;7.964;2023-07-29T12:11:54;96775.19;;;27.82;52.27
43701;BME280;58809;47.984;7.964;2023-07-29T12:14:56;96776.50;;;28.35;50.74
43701;BME280;58809;47.984;7.964;2023-07-29T12:17:59;96778.91;;;27.87;51.26
43701;BME280;58809;47.984;7.964;2023-07-29T12:21:01;96775.97;;;27.55;51.61
43701;BME280;58809;47.984;7.964;2023-07-29T12:24:03;96780.72;;;27.50;52.17
43701;BME280;58809;47.984;7.964;2023-07-29T12:27:05;96775.88;;;27.60;51.48
43701;BME280;58809;47.984;7.964;2023-07-29T12:30:09;96779.09;;;27.16;52.23
43701;BME280;58809;47.984;7.964;2023-07-29T12:33:11;96786.75;;;27.14;52.95
43701;BME280;58809;47.984;7.964;2023-07-29T12:36:12;96777.31;;;27.11;52.46
43701;BME280;58809;47.984;7.964;2023-07-29T12:39:25;96779.47;;;26.95;53.06
43701;BME280;58809;47.984;7.964;2023-07-29T12:42:27;96783.63;;;26.55;53.85
43701;BME280;58809;47.984;7.964;2023-07-29T12:45:35;96780.38;;;26.34;54.76
43701;BME280;58809;47.984;7.964;2023-07-29T12:48:37;96786.03;;;26.56;54.82
43701;BME280;58809;47.984;7.964;2023-07-29T12:51:38;96793.31;;;26.80;54.00
43701;BME280;58809;47.984;7.964;2023-07-29T12:54:40;96787.66;;;26.76;53.65
43701;BME280;58809;47.984;7.964;2023-07-29T12:57:43;96784.03;;;26.81;53.37
43701;BME280;58809;47.984;7.964;2023-07-29T13:00:45;96791.19;;;27.10;52.99
43701;BME280;58809;47.984;7.964;2023-07-29T13:03:47;96790.25;;;27.14;52.95
43701;BME280;58809;47.984;7.964;2023-07-29T13:06:50;96795.16;;;26.98;53.87
43701;BME280;58809;47.984;7.964;2023-07-29T13:09:51;96798.91;;;27.16;52.95
43701;BME280;58809;47.984;7.964;2023-07-29T13:12:53;96804.28;;;27.21;53.29
43701;BME280;58809;47.984;7.964;2023-07-29T13:15:54;96813.38;;;27.31;52.39
43701;BME280;58809;47.984;7.964;2023-07-29T13:18:56;96807.50;;;27.70;51.72
43701;BME280;58809;47.984;7.964;2023-07-29T13:21:58;96812.63;;;27.72;51.91
43701;BME280;58809;47.984;7.964;2023-07-29T13:24:59;96812.44;;;27.96;51.15
43701;BME280;58809;47.984;7.964;2023-07-29T13:28:01;96822.47;;;28.37;49.73
43701;BME280;58809;47.984;7.964;2023-07-29T13:31:02;96817.72;;;28.79;48.65
43701;BME280;58809;47.984;7.964;2023-07-29T13:34:04;96801.41;;;29.24;48.39
43701;BME280;58809;47.984;7.964;2023-07-29T13:37:06;96798.63;;;29.47;48.45
43701;BME280;58809;47.984;7.964;2023-07-29T13:40:08;96802.59;;;29.72;48.15
43701;BME280;58809;47.984;7.964;2023-07-29T13:43:09;96817.44;;;29.57;47.80
43701;BME280;58809;47.984;7.964;2023-07-29T13:46:11;96809.59;;;28.29;49.69
43701;BME280;58809;47.984;7.964;2023-07-29T13:49:13;96821.69;;;27.81;50.65
43701;BME280;58809;47.984;7.964;2023-07-29T13:52:14;96824.28;;;28.28;49.39
43701;BME280;58809;47.984;7.964;2023-07-29T13:55:16;96823.63;;;27.94;50.25
43701;BME280;58809;47.984;7.964;2023-07-29T13:58:18;96821.09;;;27.98;49.74
43701;BME280;58809;47.984;7.964;2023-07-29T14:01:19;96814.91;;;27.18;51.09
43701;BME280;58809;47.984;7.964;2023-07-29T14:04:21;96816.91;;;26.98;51.25
43701;BME280;58809;47.984;7.964;2023-07-29T14:07:23;96816.28;;;27.01;51.77
43701;BME280;58809;47.984;7.964;2023-07-29T14:10:25;96824.50;;;26.63;52.50
43701;BME280;58809;47.984;7.964;2023-07-29T14:13:27;96801.78;;;26.35;53.21
43701;BME280;58809;47.984;7.964;2023-07-29T14:16:29;96799.03;;;25.73;55.14
43701;BME280;58809;47.984;7.964;2023-07-29T14:19:33;96804.94;;;25.22;56.50
43701;BME280;58809;47.984;7.964;2023-07-29T14:22:35;96807.78;;;24.72;58.30
43701;BME280;58809;47.984;7.964;2023-07-29T14:25:37;96820.03;;;24.14;61.75
43701;BME280;58809;47.984;7.964;2023-07-29T14:28:39;96836.28;;;23.99;63.70
43701;BME280;58809;47.984;7.964;2023-07-29T14:31:40;96849.84;;;23.73;66.27
43701;BME280;58809;47.984;7.964;2023-07-29T14:34:42;96871.75;;;22.84;72.31
43701;BME280;58809;47.984;7.964;2023-07-29T14:37:43;96880.66;;;22.06;79.80
43701;BME280;58809;47.984;7.964;2023-07-29T14:40:47;96851.81;;;19.86;100.00
43701;BME280;58809;47.984;7.964;2023-07-29T14:43:49;96865.75;;;19.49;100.00
43701;BME280;58809;47.984;7.964;2023-07-29T14:46:51;96871.28;;;19.59;100.00
43701;BME280;58809;47.984;7.964;2023-07-29T14:49:52;96861.03;;;19.56;100.00
43701;BME280;58809;47.984;7.964;2023-07-29T14:52:54;96857.75;;;19.71;100.00
43701;BME280;58809;47.984;7.964;2023-07-29T14:55:55;96848.44;;;19.95;100.00
43701;BME280;58809;47.984;7.964;2023-07-29T14:58:57;96847.66;;;20.44;100.00
43701;BME280;58809;47.984;7.964;2023-07-29T15:01:59;96840.78;;;21.13;100.00
43701;BME280;58809;47.984;7.964;2023-07-29T15:05:01;96834.69;;;21.70;100.00
43701;BME280;58809;47.984;7.964;2023-07-29T15:08:02;96839.06;;;21.34;100.00
43701;BME280;58809;47.984;7.964;2023-07-29T15:11:04;96833.41;;;20.98;100.00
43701;BME280;58809;47.984;7.964;2023-07-29T15:14:06;96827.81;;;20.72;100.00
43701;BME280;58809;47.984;7.964;2023-07-29T15:17:08;96820.94;;;20.60;100.00
43701;BME280;58809;47.984;7.964;2023-07-29T15:20:10;96831.56;;;21.04;100.00
43701;BME280;58809;47.984;7.964;2023-07-29T15:23:12;96851.25;;;22.68;100.00
43701;BME280;58809;47.984;7.964;2023-07-29T15:26:14;96847.00;;;23.08;100.00
43701;BME280;58809;47.984;7.964;2023-07-29T15:29:15;96841.56;;;23.13;100.00
43701;BME280;58809;47.984;7.964;2023-07-29T15:32:17;96841.75;;;23.68;100.00
43701;BME280;58809;47.984;7.964;2023-07-29T15:35:21;96843.19;;;24.81;100.00
43701;BME280;58809;47.984;7.964;2023-07-29T15:38:22;96843.38;;;26.06;95.00
43701;BME280;58809;47.984;7.964;2023-07-29T15:41:24;96848.66;;;25.68;83.35
43701;BME280;58809;47.984;7.964;2023-07-29T15:44:25;96843.84;;;25.36;82.88
43701;BME280;58809;47.984;7.964;2023-07-29T15:47:27;96839.31;;;30.14;68.11
43701;BME280;58809;47.984;7.964;2023-07-29T15:50:29;96838.47;;;33.78;55.22
43701;BME280;58809;47.984;7.964;2023-07-29T15:53:30;96832.41;;;33.72;53.11
43701;BME280;58809;47.984;7.964;2023-07-29T15:56:32;96836.34;;;32.96;53.97
43701;BME280;58809;47.984;7.964;2023-07-29T15:59:37;96827.56;;;31.06;56.98
43701;BME280;58809;47.984;7.964;2023-07-29T16:02:39;96826.00;;;28.23;60.07
43701;BME280;58809;47.984;7.964;2023-07-29T16:05:41;96828.56;;;26.42;63.87
43701;BME280;58809;47.984;7.964;2023-07-29T16:08:43;96819.50;;;25.31;65.89
43701;BME280;58809;47.984;7.964;2023-07-29T16:11:44;96814.44;;;24.90;68.46
43701;BME280;58809;47.984;7.964;2023-07-29T16:14:46;96819.66;;;25.10;66.38